sensor_id;sensor_type;location;lat;lon;timestamp;P1;durP1;ratioP1;P2;durP2;ratioP2
60352;SDS011;46196;52.970;6.954;2023-06-01T00:00:35;16.27;;;7.07;;
60352;SDS011;46196;52.970;6.954;2023-06-01T00:03:03;17.80;;;6.97;;
60352;SDS011;46196;52.970;6.954;2023-06-01T00:05:28;19.45;;;7.60;;
60352;SDS011;46196;52.970;6.954;2023-06-01T00:07:54;20.15;;;8.20;;
60352;SDS011;46196;52.970;6.954;2023-06-01T00:10:20;19.95;;;6.90;;
60352;SDS011;46196;52.970;6.954;2023-06-01T00:12:45;15.82;;;7.28;;
60352;SDS011;46196;52.970;6.954;2023-06-01T00:15:11;27.13;;;8.95;;
60352;SDS011;46196;52.970;6.954;2023-06-01T00:17:37;20.58;;;7.03;;
60352;SDS011;46196;52.970;6.954;2023-06-01T00:20:03;22.13;;;7.00;;
60352;SDS011;46196;52.970;6.954;2023-06-01T00:22:36;15.60;;;6.10;;
60352;SDS011;46196;52.970;6.954;2023-06-01T00:25:06;24.13;;;8.00;;
60352;SDS011;46196;52.970;6.954;2023-06-01T00:27:32;17.45;;;7.35;;
60352;SDS011;46196;52.970;6.954;2023-06-01T00:29:58;27.25;;;8.80;;
60352;SDS011;46196;52.970;6.954;2023-06-01T00:32:24;18.77;;;6.90;;
60352;SDS011;46196;52.970;6.954;2023-06-01T00:34:49;21.15;;;7.45;;
60352;SDS011;46196;52.970;6.954;2023-06-01T00:37:15;15.23;;;8.07;;
60352;SDS011;46196;52.970;6.954;2023-06-01T00:39:41;21.00;;;7.82;;
60352;SDS011;46196;52.970;6.954;2023-06-01T00:42:06;23.73;;;7.43;;
60352;SDS011;46196;52.970;6.954;2023-06-01T00:44:33;19.65;;;6.57;;
60352;SDS011;46196;52.970;6.954;2023-06-01T00:46:59;20.65;;;7.32;;
60352;SDS011;46196;52.970;6.954;2023-06-01T00:49:25;16.40;;;6.57;;
60352;SDS011;46196;52.970;6.954;2023-06-01T00:51:52;19.00;;;8.02;;
60352;SDS011;46196;52.970;6.954;2023-06-01T00:54:18;19.17;;;6.90;;
60352;SDS011;46196;52.970;6.954;2023-06-01T00:56:44;21.42;;;8.23;;
60352;SDS011;46196;52.970;6.954;2023-06-01T00:59:10;23.25;;;7.65;;
60352;SDS011;46196;52.970;6.954;2023-06-01T01:01:38;21.38;;;7.40;;
60352;SDS011;46196;52.970;6.954;2023-06-01T01:04:04;22.35;;;7.53;;
60352;SDS011;46196;52.970;6.954;2023-06-01T01:06:45;18.48;;;7.05;;
60352;SDS011;46196;52.970;6.954;2023-06-01T01:14:43;22.00;;;7.20;;
60352;SDS011;46196;52.970;6.954;2023-06-01T01:17:22;19.23;;;6.55;;
60352;SDS011;46196;52.970;6.954;2023-06-01T01:20:02;22.92;;;7.60;;
60352;SDS011;46196;52.970;6.954;2023-06-01T01:25:10;21.33;;;7.35;;
60352;SDS011;46196;52.970;6.954;2023-06-01T01:27:54;21.30;;;7.78;;
60352;SDS011;46196;52.970;6.954;2023-06-01T01:30:41;18.17;;;7.43;;
60352;SDS011;46196;52.970;6.954;2023-06-01T01:33:08;16.48;;;8.05;;
60352;SDS011;46196;52.970;6.954;2023-06-01T01:35:35;15.88;;;7.40;;
60352;SDS011;46196;52.970;6.954;2023-06-01T01:38:03;22.75;;;7.63;;
60352;SDS011;46196;52.970;6.954;2023-06-01T01:40:29;20.98;;;7.65;;
60352;SDS011;46196;52.970;6.954;2023-06-01T01:42:55;19.85;;;7.05;;
60352;SDS011;46196;52.970;6.954;2023-06-01T01:45:22;18.38;;;7.03;;
60352;SDS011;46196;52.970;6.954;2023-06-01T01:47:54;14.30;;;6.70;;
60352;SDS011;46196;52.970;6.954;2023-06-01T01:50:32;19.88;;;7.82;;
60352;SDS011;46196;52.970;6.954;2023-06-01T01:53:04;17.50;;;7.43;;
60352;SDS011;46196;52.970;6.954;2023-06-01T01:55:32;18.33;;;7.05;;
60352;SDS011;46196;52.970;6.954;2023-06-01T01:58:00;22.27;;;7.22;;
60352;SDS011;46196;52.970;6.954;2023-06-01T02:00:27;22.77;;;9.00;;
60352;SDS011;46196;52.970;6.954;2023-06-01T02:02:53;18.92;;;7.47;;
60352;SDS011;46196;52.970;6.954;2023-06-01T02:05:18;17.83;;;6.68;;
60352;SDS011;46196;52.970;6.954;2023-06-01T02:07:44;15.30;;;6.78;;
60352;SDS011;46196;52.970;6.954;2023-06-01T02:10:10;16.63;;;6.70;;
60352;SDS011;46196;52.970;6.954;2023-06-01T02:12:36;17.98;;;6.03;;
60352;SDS011;46196;52.970;6.954;2023-06-01T02:15:02;17.70;;;6.80;;
60352;SDS011;46196;52.970;6.954;2023-06-01T02:17:28;20.25;;;6.70;;
60352;SDS011;46196;52.970;6.954;2023-06-01T02:19:54;20.90;;;6.93;;
60352;SDS011;46196;52.970;6.954;2023-06-01T02:22:20;18.42;;;6.63;;
60352;SDS011;46196;52.970;6.954;2023-06-01T02:24:45;17.85;;;6.70;;
60352;SDS011;46196;52.970;6.954;2023-06-01T02:27:12;16.65;;;6.43;;
60352;SDS011;46196;52.970;6.954;2023-06-01T02:29:38;17.17;;;6.15;;
60352;SDS011;46196;52.970;6.954;2023-06-01T02:32:03;14.15;;;6.22;;
60352;SDS011;46196;52.970;6.954;2023-06-01T02:34:30;14.10;;;6.32;;
60352;SDS011;46196;52.970;6.954;2023-06-01T02:36:55;18.85;;;6.95;;
60352;SDS011;46196;52.970;6.954;2023-06-01T02:39:22;15.80;;;6.13;;
60352;SDS011;46196;52.970;6.954;2023-06-01T02:41:48;15.52;;;7.22;;
60352;SDS011;46196;52.970;6.954;2023-06-01T02:44:14;12.23;;;5.85;;
60352;SDS011;46196;52.970;6.954;2023-06-01T02:46:40;16.25;;;6.50;;
60352;SDS011;46196;52.970;6.954;2023-06-01T02:49:05;12.02;;;5.72;;
60352;SDS011;46196;52.970;6.954;2023-06-01T02:51:31;13.20;;;6.47;;
60352;SDS011;46196;52.970;6.954;2023-06-01T02:53:58;13.13;;;6.13;;
60352;SDS011;46196;52.970;6.954;2023-06-01T02:56:24;19.83;;;6.75;;
60352;SDS011;46196;52.970;6.954;2023-06-01T02:58:50;16.98;;;6.28;;
60352;SDS011;46196;52.970;6.954;2023-06-01T03:01:15;14.52;;;5.70;;
60352;SDS011;46196;52.970;6.954;2023-06-01T03:03:41;16.30;;;6.45;;
60352;SDS011;46196;52.970;6.954;2023-06-01T03:06:07;14.73;;;5.82;;
60352;SDS011;46196;52.970;6.954;2023-06-01T03:08:33;11.85;;;5.10;;
60352;SDS011;46196;52.970;6.954;2023-06-01T03:11:00;18.08;;;7.18;;
60352;SDS011;46196;52.970;6.954;2023-06-01T03:13:26;11.95;;;5.25;;
60352;SDS011;46196;52.970;6.954;2023-06-01T03:15:51;13.40;;;5.47;;
60352;SDS011;46196;52.970;6.954;2023-06-01T03:18:17;21.67;;;5.15;;
60352;SDS011;46196;52.970;6.954;2023-06-01T03:20:43;9.65;;;5.28;;
60352;SDS011;46196;52.970;6.954;2023-06-01T03:23:08;15.05;;;4.75;;
60352;SDS011;46196;52.970;6.954;2023-06-01T03:25:34;13.65;;;5.38;;
60352;SDS011;46196;52.970;6.954;2023-06-01T03:28:00;9.80;;;4.82;;
60352;SDS011;46196;52.970;6.954;2023-06-01T03:30:25;12.00;;;5.20;;
60352;SDS011;46196;52.970;6.954;2023-06-01T03:32:51;13.07;;;5.50;;
60352;SDS011;46196;52.970;6.954;2023-06-01T03:35:17;11.93;;;5.60;;
60352;SDS011;46196;52.970;6.954;2023-06-01T03:37:44;13.95;;;5.68;;
60352;SDS011;46196;52.970;6.954;2023-06-01T03:40:11;14.98;;;5.70;;
60352;SDS011;46196;52.970;6.954;2023-06-01T03:42:43;13.20;;;5.07;;
60352;SDS011;46196;52.970;6.954;2023-06-01T03:45:11;12.43;;;5.22;;
60352;SDS011;46196;52.970;6.954;2023-06-01T03:47:38;11.80;;;4.97;;
60352;SDS011;46196;52.970;6.954;2023-06-01T03:50:04;11.45;;;4.72;;
60352;SDS011;46196;52.970;6.954;2023-06-01T03:52:32;9.50;;;4.55;;
60352;SDS011;46196;52.970;6.954;2023-06-01T03:54:59;9.15;;;4.95;;
60352;SDS011;46196;52.970;6.954;2023-06-01T03:57:26;12.98;;;5.32;;
60352;SDS011;46196;52.970;6.954;2023-06-01T03:59:52;13.30;;;5.60;;
60352;SDS011;46196;52.970;6.954;2023-06-01T04:02:18;13.40;;;5.03;;
60352;SDS011;46196;52.970;6.954;2023-06-01T04:04:45;11.98;;;4.63;;
60352;SDS011;46196;52.970;6.954;2023-06-01T04:07:14;10.68;;;5.03;;
60352;SDS011;46196;52.970;6.954;2023-06-01T04:09:43;12.60;;;4.85;;
60352;SDS011;46196;52.970;6.954;2023-06-01T04:12:09;12.73;;;5.35;;
60352;SDS011;46196;52.970;6.954;2023-06-01T04:14:38;13.95;;;5.53;;
60352;SDS011;46196;52.970;6.954;2023-06-01T04:17:04;11.57;;;5.68;;
60352;SDS011;46196;52.970;6.954;2023-06-01T04:19:31;18.00;;;5.38;;
60352;SDS011;46196;52.970;6.954;2023-06-01T04:21:57;15.07;;;5.68;;
60352;SDS011;46196;52.970;6.954;2023-06-01T04:24:23;14.43;;;6.05;;
60352;SDS011;46196;52.970;6.954;2023-06-01T04:26:48;12.77;;;5.20;;
60352;SDS011;46196;52.970;6.954;2023-06-01T04:29:15;16.15;;;5.43;;
60352;SDS011;46196;52.970;6.954;2023-06-01T04:31:41;14.77;;;5.57;;
60352;SDS011;46196;52.970;6.954;2023-06-01T04:34:07;12.45;;;6.07;;
60352;SDS011;46196;52.970;6.954;2023-06-01T04:36:32;14.07;;;5.18;;
60352;SDS011;46196;52.970;6.954;2023-06-01T04:39:02;17.48;;;5.50;;
60352;SDS011;46196;52.970;6.954;2023-06-01T04:41:31;13.73;;;5.57;;
60352;SDS011;46196;52.970;6.954;2023-06-01T04:43:58;11.40;;;5.00;;
60352;SDS011;46196;52.970;6.954;2023-06-01T04:46:24;13.38;;;5.57;;
60352;SDS011;46196;52.970;6.954;2023-06-01T04:48:53;13.18;;;5.43;;
60352;SDS011;46196;52.970;6.954;2023-06-01T04:51:22;11.00;;;5.00;;
60352;SDS011;46196;52.970;6.954;2023-06-01T04:53:49;15.32;;;5.50;;
60352;SDS011;46196;52.970;6.954;2023-06-01T04:56:20;16.13;;;6.22;;
60352;SDS011;46196;52.970;6.954;2023-06-01T04:58:51;12.38;;;5.25;;
60352;SDS011;46196;52.970;6.954;2023-06-01T05:01:17;13.00;;;4.80;;
60352;SDS011;46196;52.970;6.954;2023-06-01T05:03:44;14.40;;;5.72;;
60352;SDS011;46196;52.970;6.954;2023-06-01T05:06:10;11.73;;;5.90;;
60352;SDS011;46196;52.970;6.954;2023-06-01T05:08:38;11.23;;;5.03;;
60352;SDS011;46196;52.970;6.954;2023-06-01T05:11:04;14.07;;;5.40;;
60352;SDS011;46196;52.970;6.954;2023-06-01T05:13:30;9.82;;;5.90;;
60352;SDS011;46196;52.970;6.954;2023-06-01T05:15:55;14.10;;;5.65;;
60352;SDS011;46196;52.970;6.954;2023-06-01T05:18:21;15.20;;;5.63;;
60352;SDS011;46196;52.970;6.954;2023-06-01T05:20:47;13.20;;;5.38;;
60352;SDS011;46196;52.970;6.954;2023-06-01T05:23:12;14.32;;;6.03;;
60352;SDS011;46196;52.970;6.954;2023-06-01T05:25:38;10.40;;;5.63;;
60352;SDS011;46196;52.970;6.954;2023-06-01T05:28:04;17.05;;;6.18;;
60352;SDS011;46196;52.970;6.954;2023-06-01T05:30:30;12.25;;;5.65;;
60352;SDS011;46196;52.970;6.954;2023-06-01T05:32:56;15.32;;;6.05;;
60352;SDS011;46196;52.970;6.954;2023-06-01T05:35:21;10.98;;;4.93;;
60352;SDS011;46196;52.970;6.954;2023-06-01T05:37:47;13.18;;;5.82;;
60352;SDS011;46196;52.970;6.954;2023-06-01T05:40:12;14.80;;;5.38;;
60352;SDS011;46196;52.970;6.954;2023-06-01T05:42:38;11.88;;;5.15;;
60352;SDS011;46196;52.970;6.954;2023-06-01T05:45:04;11.77;;;5.63;;
60352;SDS011;46196;52.970;6.954;2023-06-01T05:47:30;14.40;;;5.47;;
60352;SDS011;46196;52.970;6.954;2023-06-01T05:49:56;13.10;;;6.07;;
60352;SDS011;46196;52.970;6.954;2023-06-01T05:52:22;11.20;;;5.57;;
60352;SDS011;46196;52.970;6.954;2023-06-01T05:54:48;11.52;;;5.55;;
60352;SDS011;46196;52.970;6.954;2023-06-01T05:57:15;10.40;;;5.28;;
60352;SDS011;46196;52.970;6.954;2023-06-01T05:59:41;12.98;;;5.45;;
60352;SDS011;46196;52.970;6.954;2023-06-01T06:02:07;14.30;;;5.00;;
60352;SDS011;46196;52.970;6.954;2023-06-01T06:04:33;12.35;;;5.50;;
60352;SDS011;46196;52.970;6.954;2023-06-01T06:06:58;11.02;;;5.57;;
60352;SDS011;46196;52.970;6.954;2023-06-01T06:09:24;9.60;;;5.22;;
60352;SDS011;46196;52.970;6.954;2023-06-01T06:11:50;15.35;;;6.13;;
60352;SDS011;46196;52.970;6.954;2023-06-01T06:14:16;12.30;;;5.80;;
60352;SDS011;46196;52.970;6.954;2023-06-01T06:16:42;10.88;;;5.53;;
60352;SDS011;46196;52.970;6.954;2023-06-01T06:19:07;15.30;;;5.85;;
60352;SDS011;46196;52.970;6.954;2023-06-01T06:21:33;12.23;;;5.28;;
60352;SDS011;46196;52.970;6.954;2023-06-01T06:24:01;11.82;;;5.60;;
60352;SDS011;46196;52.970;6.954;2023-06-01T06:26:26;11.95;;;5.60;;
60352;SDS011;46196;52.970;6.954;2023-06-01T06:28:52;14.65;;;6.05;;
60352;SDS011;46196;52.970;6.954;2023-06-01T06:31:18;15.10;;;6.68;;
60352;SDS011;46196;52.970;6.954;2023-06-01T06:33:43;14.80;;;6.70;;
60352;SDS011;46196;52.970;6.954;2023-06-01T06:36:09;13.35;;;6.13;;
60352;SDS011;46196;52.970;6.954;2023-06-01T06:38:35;11.93;;;5.20;;
60352;SDS011;46196;52.970;6.954;2023-06-01T06:41:00;9.95;;;4.40;;
60352;SDS011;46196;52.970;6.954;2023-06-01T06:43:26;7.93;;;4.28;;
60352;SDS011;46196;52.970;6.954;2023-06-01T06:45:52;10.07;;;4.03;;
60352;SDS011;46196;52.970;6.954;2023-06-01T06:48:17;10.05;;;4.38;;
60352;SDS011;46196;52.970;6.954;2023-06-01T06:50:43;13.52;;;4.70;;
60352;SDS011;46196;52.970;6.954;2023-06-01T06:53:10;8.50;;;4.10;;
60352;SDS011;46196;52.970;6.954;2023-06-01T06:55:36;11.52;;;4.43;;
60352;SDS011;46196;52.970;6.954;2023-06-01T06:58:02;9.18;;;4.00;;
60352;SDS011;46196;52.970;6.954;2023-06-01T07:00:27;6.78;;;3.78;;
60352;SDS011;46196;52.970;6.954;2023-06-01T07:02:53;11.23;;;3.85;;
60352;SDS011;46196;52.970;6.954;2023-06-01T07:05:20;8.80;;;3.83;;
60352;SDS011;46196;52.970;6.954;2023-06-01T07:07:46;7.85;;;4.10;;
60352;SDS011;46196;52.970;6.954;2023-06-01T07:10:11;8.57;;;3.58;;
60352;SDS011;46196;52.970;6.954;2023-06-01T07:12:37;6.68;;;3.35;;
60352;SDS011;46196;52.970;6.954;2023-06-01T07:15:03;5.65;;;3.22;;
60352;SDS011;46196;52.970;6.954;2023-06-01T07:17:30;5.82;;;3.42;;
60352;SDS011;46196;52.970;6.954;2023-06-01T07:19:56;6.78;;;3.20;;
60352;SDS011;46196;52.970;6.954;2023-06-01T07:22:23;6.55;;;3.60;;
60352;SDS011;46196;52.970;6.954;2023-06-01T07:24:48;9.05;;;3.45;;
60352;SDS011;46196;52.970;6.954;2023-06-01T07:27:14;9.48;;;2.80;;
60352;SDS011;46196;52.970;6.954;2023-06-01T07:29:42;5.03;;;2.33;;
60352;SDS011;46196;52.970;6.954;2023-06-01T07:32:09;3.78;;;2.40;;
60352;SDS011;46196;52.970;6.954;2023-06-01T07:34:35;5.30;;;2.67;;
60352;SDS011;46196;52.970;6.954;2023-06-01T07:37:01;5.25;;;2.90;;
60352;SDS011;46196;52.970;6.954;2023-06-01T07:39:26;5.85;;;2.95;;
60352;SDS011;46196;52.970;6.954;2023-06-01T07:41:52;5.00;;;2.33;;
60352;SDS011;46196;52.970;6.954;2023-06-01T07:44:21;3.90;;;2.30;;
60352;SDS011;46196;52.970;6.954;2023-06-01T07:46:48;4.70;;;2.33;;
60352;SDS011;46196;52.970;6.954;2023-06-01T07:49:13;3.83;;;2.17;;
60352;SDS011;46196;52.970;6.954;2023-06-01T07:51:40;4.68;;;2.13;;
60352;SDS011;46196;52.970;6.954;2023-06-01T07:54:06;2.70;;;2.10;;
60352;SDS011;46196;52.970;6.954;2023-06-01T07:56:33;4.65;;;2.30;;
60352;SDS011;46196;52.970;6.954;2023-06-01T07:58:59;5.82;;;2.10;;
60352;SDS011;46196;52.970;6.954;2023-06-01T08:01:25;4.47;;;2.30;;
60352;SDS011;46196;52.970;6.954;2023-06-01T08:03:51;5.68;;;2.60;;
60352;SDS011;46196;52.970;6.954;2023-06-01T08:06:17;7.43;;;2.40;;
60352;SDS011;46196;52.970;6.954;2023-06-01T08:08:43;8.10;;;2.60;;
60352;SDS011;46196;52.970;6.954;2023-06-01T08:11:11;5.72;;;2.65;;
60352;SDS011;46196;52.970;6.954;2023-06-01T08:13:36;6.05;;;2.97;;
60352;SDS011;46196;52.970;6.954;2023-06-01T08:16:03;8.38;;;3.40;;
60352;SDS011;46196;52.970;6.954;2023-06-01T08:18:29;7.82;;;3.25;;
60352;SDS011;46196;52.970;6.954;2023-06-01T08:20:55;7.10;;;3.28;;
60352;SDS011;46196;52.970;6.954;2023-06-01T08:23:21;7.97;;;3.50;;
60352;SDS011;46196;52.970;6.954;2023-06-01T08:25:49;8.93;;;3.53;;
60352;SDS011;46196;52.970;6.954;2023-06-01T08:28:15;6.82;;;4.00;;
60352;SDS011;46196;52.970;6.954;2023-06-01T08:30:41;11.73;;;4.35;;
60352;SDS011;46196;52.970;6.954;2023-06-01T08:33:06;6.25;;;3.15;;
60352;SDS011;46196;52.970;6.954;2023-06-01T08:35:32;5.47;;;3.58;;
60352;SDS011;46196;52.970;6.954;2023-06-01T08:38:02;8.57;;;3.50;;
60352;SDS011;46196;52.970;6.954;2023-06-01T08:40:28;6.13;;;3.75;;
60352;SDS011;46196;52.970;6.954;2023-06-01T08:45:24;8.38;;;3.65;;
60352;SDS011;46196;52.970;6.954;2023-06-01T08:47:54;6.53;;;3.63;;
60352;SDS011;46196;52.970;6.954;2023-06-01T08:50:22;8.40;;;3.83;;
60352;SDS011;46196;52.970;6.954;2023-06-01T08:52:49;13.50;;;4.30;;
60352;SDS011;46196;52.970;6.954;2023-06-01T08:55:20;10.35;;;4.00;;
60352;SDS011;46196;52.970;6.954;2023-06-01T08:57:46;10.00;;;4.22;;
60352;SDS011;46196;52.970;6.954;2023-06-01T09:00:12;10.02;;;4.10;;
60352;SDS011;46196;52.970;6.954;2023-06-01T09:02:39;8.82;;;4.00;;
60352;SDS011;46196;52.970;6.954;2023-06-01T09:05:05;10.32;;;3.53;;
60352;SDS011;46196;52.970;6.954;2023-06-01T09:07:31;9.02;;;4.18;;
60352;SDS011;46196;52.970;6.954;2023-06-01T09:09:57;6.38;;;3.70;;
60352;SDS011;46196;52.970;6.954;2023-06-01T09:12:26;8.02;;;3.45;;
60352;SDS011;46196;52.970;6.954;2023-06-01T09:15:16;7.38;;;3.42;;
60352;SDS011;46196;52.970;6.954;2023-06-01T09:17:45;11.35;;;4.20;;
60352;SDS011;46196;52.970;6.954;2023-06-01T09:20:12;9.93;;;3.95;;
60352;SDS011;46196;52.970;6.954;2023-06-01T09:22:43;15.30;;;6.15;;
60352;SDS011;46196;52.970;6.954;2023-06-01T09:25:11;10.68;;;4.85;;
60352;SDS011;46196;52.970;6.954;2023-06-01T09:30:17;11.27;;;4.18;;
60352;SDS011;46196;52.970;6.954;2023-06-01T09:32:44;12.55;;;4.68;;
60352;SDS011;46196;52.970;6.954;2023-06-01T09:35:15;9.27;;;4.53;;
60352;SDS011;46196;52.970;6.954;2023-06-01T09:37:53;11.70;;;5.28;;
60352;SDS011;46196;52.970;6.954;2023-06-01T09:40:23;11.35;;;4.65;;
60352;SDS011;46196;52.970;6.954;2023-06-01T09:42:48;8.20;;;4.28;;
60352;SDS011;46196;52.970;6.954;2023-06-01T09:45:19;15.18;;;5.07;;
60352;SDS011;46196;52.970;6.954;2023-06-01T09:47:46;12.63;;;5.28;;
60352;SDS011;46196;52.970;6.954;2023-06-01T09:50:31;13.00;;;5.85;;
60352;SDS011;46196;52.970;6.954;2023-06-01T09:53:03;28.55;;;5.22;;
60352;SDS011;46196;52.970;6.954;2023-06-01T09:55:30;12.25;;;4.93;;
60352;SDS011;46196;52.970;6.954;2023-06-01T10:00:48;11.63;;;4.72;;
60352;SDS011;46196;52.970;6.954;2023-06-01T10:03:15;11.43;;;5.30;;
60352;SDS011;46196;52.970;6.954;2023-06-01T10:05:45;10.13;;;4.75;;
60352;SDS011;46196;52.970;6.954;2023-06-01T10:08:12;11.85;;;4.75;;
60352;SDS011;46196;52.970;6.954;2023-06-01T10:10:40;13.85;;;4.95;;
60352;SDS011;46196;52.970;6.954;2023-06-01T10:13:08;17.67;;;4.88;;
60352;SDS011;46196;52.970;6.954;2023-06-01T10:15:35;14.40;;;5.35;;
60352;SDS011;46196;52.970;6.954;2023-06-01T10:18:02;12.88;;;4.88;;
60352;SDS011;46196;52.970;6.954;2023-06-01T10:20:31;14.88;;;5.15;;
60352;SDS011;46196;52.970;6.954;2023-06-01T10:25:49;13.23;;;5.13;;
60352;SDS011;46196;52.970;6.954;2023-06-01T10:28:15;14.25;;;5.00;;
60352;SDS011;46196;52.970;6.954;2023-06-01T10:30:42;14.52;;;5.43;;
60352;SDS011;46196;52.970;6.954;2023-06-01T10:33:08;14.55;;;5.18;;
60352;SDS011;46196;52.970;6.954;2023-06-01T10:40:40;14.98;;;5.20;;
60352;SDS011;46196;52.970;6.954;2023-06-01T10:46:03;10.30;;;5.32;;
60352;SDS011;46196;52.970;6.954;2023-06-01T10:48:58;13.90;;;4.80;;
60352;SDS011;46196;52.970;6.954;2023-06-01T10:51:24;15.15;;;4.85;;
60352;SDS011;46196;52.970;6.954;2023-06-01T10:53:50;11.02;;;4.40;;
60352;SDS011;46196;52.970;6.954;2023-06-01T10:58:47;13.57;;;5.65;;
60352;SDS011;46196;52.970;6.954;2023-06-01T11:01:36;14.77;;;5.43;;
60352;SDS011;46196;52.970;6.954;2023-06-01T11:04:03;14.30;;;5.60;;
60352;SDS011;46196;52.970;6.954;2023-06-01T11:06:40;11.63;;;5.10;;
60352;SDS011;46196;52.970;6.954;2023-06-01T11:09:08;11.63;;;5.13;;
60352;SDS011;46196;52.970;6.954;2023-06-01T11:14:17;8.73;;;4.90;;
60352;SDS011;46196;52.970;6.954;2023-06-01T11:16:50;12.75;;;5.05;;
60352;SDS011;46196;52.970;6.954;2023-06-01T11:19:26;18.08;;;5.43;;
60352;SDS011;46196;52.970;6.954;2023-06-01T11:21:56;11.82;;;5.10;;
60352;SDS011;46196;52.970;6.954;2023-06-01T11:24:33;13.88;;;5.47;;
60352;SDS011;46196;52.970;6.954;2023-06-01T11:27:04;16.63;;;5.50;;
60352;SDS011;46196;52.970;6.954;2023-06-01T11:29:31;12.13;;;5.25;;
60352;SDS011;46196;52.970;6.954;2023-06-01T11:31:58;17.45;;;5.35;;
60352;SDS011;46196;52.970;6.954;2023-06-01T11:34:29;15.60;;;5.90;;
60352;SDS011;46196;52.970;6.954;2023-06-01T11:36:56;11.05;;;5.03;;
60352;SDS011;46196;52.970;6.954;2023-06-01T11:39:23;15.18;;;5.35;;
60352;SDS011;46196;52.970;6.954;2023-06-01T11:44:31;16.45;;;5.30;;
60352;SDS011;46196;52.970;6.954;2023-06-01T11:46:59;14.77;;;4.88;;
60352;SDS011;46196;52.970;6.954;2023-06-01T11:49:26;11.77;;;5.55;;
60352;SDS011;46196;52.970;6.954;2023-06-01T11:51:52;16.90;;;5.70;;
60352;SDS011;46196;52.970;6.954;2023-06-01T11:56:47;17.88;;;5.82;;
60352;SDS011;46196;52.970;6.954;2023-06-01T11:59:13;11.85;;;4.97;;
60352;SDS011;46196;52.970;6.954;2023-06-01T12:01:42;16.02;;;5.00;;
60352;SDS011;46196;52.970;6.954;2023-06-01T12:04:16;13.63;;;4.88;;
60352;SDS011;46196;52.970;6.954;2023-06-01T12:06:43;12.32;;;4.38;;
60352;SDS011;46196;52.970;6.954;2023-06-01T12:09:10;13.13;;;5.03;;
60352;SDS011;46196;52.970;6.954;2023-06-01T12:11:37;13.38;;;4.63;;
60352;SDS011;46196;52.970;6.954;2023-06-01T12:14:03;10.05;;;4.47;;
60352;SDS011;46196;52.970;6.954;2023-06-01T12:19:30;12.07;;;5.10;;
60352;SDS011;46196;52.970;6.954;2023-06-01T12:21:57;13.02;;;5.43;;
60352;SDS011;46196;52.970;6.954;2023-06-01T12:24:41;9.68;;;5.15;;
60352;SDS011;46196;52.970;6.954;2023-06-01T12:27:17;14.27;;;4.78;;
60352;SDS011;46196;52.970;6.954;2023-06-01T12:29:47;10.75;;;4.25;;
60352;SDS011;46196;52.970;6.954;2023-06-01T12:32:15;12.98;;;5.38;;
60352;SDS011;46196;52.970;6.954;2023-06-01T12:34:43;13.90;;;5.95;;
60352;SDS011;46196;52.970;6.954;2023-06-01T12:37:16;15.43;;;6.07;;
60352;SDS011;46196;52.970;6.954;2023-06-01T12:39:47;14.40;;;5.15;;
60352;SDS011;46196;52.970;6.954;2023-06-01T12:42:17;15.18;;;5.80;;
60352;SDS011;46196;52.970;6.954;2023-06-01T12:44:43;12.35;;;3.95;;
60352;SDS011;46196;52.970;6.954;2023-06-01T12:47:11;11.82;;;4.80;;
60352;SDS011;46196;52.970;6.954;2023-06-01T12:49:37;11.15;;;4.97;;
60352;SDS011;46196;52.970;6.954;2023-06-01T12:52:05;9.82;;;4.57;;
60352;SDS011;46196;52.970;6.954;2023-06-01T12:54:30;9.88;;;4.97;;
60352;SDS011;46196;52.970;6.954;2023-06-01T12:56:56;10.73;;;4.85;;
60352;SDS011;46196;52.970;6.954;2023-06-01T12:59:22;11.88;;;4.70;;
60352;SDS011;46196;52.970;6.954;2023-06-01T13:01:48;17.83;;;5.60;;
60352;SDS011;46196;52.970;6.954;2023-06-01T13:04:14;9.38;;;4.97;;
60352;SDS011;46196;52.970;6.954;2023-06-01T13:06:39;10.52;;;5.05;;
60352;SDS011;46196;52.970;6.954;2023-06-01T13:09:05;12.48;;;5.40;;
60352;SDS011;46196;52.970;6.954;2023-06-01T13:11:31;11.52;;;4.95;;
60352;SDS011;46196;52.970;6.954;2023-06-01T13:13:57;6.70;;;3.67;;
60352;SDS011;46196;52.970;6.954;2023-06-01T13:16:23;11.80;;;5.22;;
60352;SDS011;46196;52.970;6.954;2023-06-01T13:18:48;13.70;;;5.57;;
60352;SDS011;46196;52.970;6.954;2023-06-01T13:21:16;16.83;;;5.63;;
60352;SDS011;46196;52.970;6.954;2023-06-01T13:23:42;10.93;;;5.38;;
60352;SDS011;46196;52.970;6.954;2023-06-01T13:26:08;15.98;;;5.47;;
60352;SDS011;46196;52.970;6.954;2023-06-01T13:28:35;14.70;;;5.82;;
60352;SDS011;46196;52.970;6.954;2023-06-01T13:31:00;16.17;;;4.95;;
60352;SDS011;46196;52.970;6.954;2023-06-01T13:33:26;14.32;;;5.45;;
60352;SDS011;46196;52.970;6.954;2023-06-01T13:35:52;14.90;;;5.55;;
60352;SDS011;46196;52.970;6.954;2023-06-01T13:38:17;18.77;;;6.18;;
60352;SDS011;46196;52.970;6.954;2023-06-01T13:40:43;17.10;;;5.43;;
60352;SDS011;46196;52.970;6.954;2023-06-01T13:43:09;18.25;;;6.10;;
60352;SDS011;46196;52.970;6.954;2023-06-01T13:45:34;16.00;;;5.18;;
60352;SDS011;46196;52.970;6.954;2023-06-01T13:48:00;14.57;;;5.28;;
60352;SDS011;46196;52.970;6.954;2023-06-01T13:50:26;18.00;;;4.80;;
60352;SDS011;46196;52.970;6.954;2023-06-01T13:52:52;12.60;;;5.55;;
60352;SDS011;46196;52.970;6.954;2023-06-01T13:55:18;11.43;;;5.38;;
60352;SDS011;46196;52.970;6.954;2023-06-01T13:57:44;14.88;;;5.25;;
60352;SDS011;46196;52.970;6.954;2023-06-01T14:00:10;15.30;;;6.00;;
60352;SDS011;46196;52.970;6.954;2023-06-01T14:02:37;17.30;;;7.03;;
60352;SDS011;46196;52.970;6.954;2023-06-01T14:05:03;17.38;;;5.82;;
60352;SDS011;46196;52.970;6.954;2023-06-01T14:07:29;12.65;;;4.90;;
60352;SDS011;46196;52.970;6.954;2023-06-01T14:09:55;14.70;;;5.95;;
60352;SDS011;46196;52.970;6.954;2023-06-01T14:12:21;14.27;;;5.75;;
60352;SDS011;46196;52.970;6.954;2023-06-01T14:14:46;9.57;;;4.95;;
60352;SDS011;46196;52.970;6.954;2023-06-01T14:17:12;14.15;;;4.95;;
60352;SDS011;46196;52.970;6.954;2023-06-01T14:19:37;15.77;;;5.80;;
60352;SDS011;46196;52.970;6.954;2023-06-01T14:22:03;13.35;;;5.15;;
60352;SDS011;46196;52.970;6.954;2023-06-01T14:24:29;13.27;;;5.50;;
60352;SDS011;46196;52.970;6.954;2023-06-01T14:26:55;11.70;;;4.65;;
60352;SDS011;46196;52.970;6.954;2023-06-01T14:29:21;9.82;;;4.72;;
60352;SDS011;46196;52.970;6.954;2023-06-01T14:31:46;10.80;;;4.93;;
60352;SDS011;46196;52.970;6.954;2023-06-01T14:34:12;9.10;;;4.07;;
60352;SDS011;46196;52.970;6.954;2023-06-01T14:36:38;8.23;;;4.53;;
60352;SDS011;46196;52.970;6.954;2023-06-01T14:39:05;11.18;;;4.65;;
60352;SDS011;46196;52.970;6.954;2023-06-01T14:41:31;11.82;;;4.45;;
60352;SDS011;46196;52.970;6.954;2023-06-01T14:43:57;10.85;;;4.60;;
60352;SDS011;46196;52.970;6.954;2023-06-01T14:46:22;18.25;;;5.10;;
60352;SDS011;46196;52.970;6.954;2023-06-01T14:48:48;9.85;;;5.03;;
60352;SDS011;46196;52.970;6.954;2023-06-01T14:51:14;9.85;;;4.70;;
60352;SDS011;46196;52.970;6.954;2023-06-01T14:53:39;10.27;;;4.72;;
60352;SDS011;46196;52.970;6.954;2023-06-01T14:56:05;16.35;;;5.00;;
60352;SDS011;46196;52.970;6.954;2023-06-01T14:58:31;6.00;;;3.45;;
60352;SDS011;46196;52.970;6.954;2023-06-01T15:00:57;8.30;;;3.90;;
60352;SDS011;46196;52.970;6.954;2023-06-01T15:03:23;11.43;;;4.20;;
60352;SDS011;46196;52.970;6.954;2023-06-01T15:05:49;7.80;;;3.90;;
60352;SDS011;46196;52.970;6.954;2023-06-01T15:08:16;9.93;;;3.60;;
60352;SDS011;46196;52.970;6.954;2023-06-01T15:10:45;7.30;;;3.60;;
60352;SDS011;46196;52.970;6.954;2023-06-01T15:13:11;6.60;;;2.95;;
60352;SDS011;46196;52.970;6.954;2023-06-01T15:15:40;7.43;;;3.53;;
60352;SDS011;46196;52.970;6.954;2023-06-01T15:18:06;10.50;;;3.75;;